Time;durP1;ratioP1;P1;durP2;ratioP2;P2;SDS_P1;SDS_P2;PMS_P1;PMS_P2;Temp;Humidity;BMP_temperature;BMP_pressure;BME280_temperature;BME280_humidity;BME280_pressure;Samples;Min_cycle;Max_cycle;Signal;HPM_P1;HPM_P2
2021/03/21 00:01:10;;;;;;;5.37;3.60;;;;;;;2.76;57.88;98882.41;5095077;28;20203;-67
2021/03/21 00:03:36;;;;;;;3.63;3.30;;;;;;;2.72;58.91;98878.19;5094951;28;20210;-68
2021/03/21 00:06:03;;;;;;;4.57;3.30;;;;;;;2.75;58.27;98872.88;5095053;28;20218;-68
2021/03/21 00:08:32;;;;;;;4.80;3.53;;;;;;;2.66;59.59;98860.09;5094602;28;20664;-69
2021/03/21 00:11:00;;;;;;;3.83;3.27;;;;;;;2.63;59.31;98865.38;5094651;28;20225;-69
2021/03/21 00:13:26;;;;;;;4.43;3.40;;;;;;;2.60;60.45;98875.03;5094854;28;20246;-69
2021/03/21 00:15:55;;;;;;;5.13;2.87;;;;;;;2.51;60.72;98877.91;5094880;28;20256;-68
2021/03/21 00:18:25;;;;;;;4.63;3.30;;;;;;;2.36;60.04;98873.91;5094478;28;20220;-69
2021/03/21 00:20:52;;;;;;;3.47;3.10;;;;;;;2.34;60.38;98873.06;5094830;28;20207;-68
2021/03/21 00:23:19;;;;;;;3.80;3.00;;;;;;;2.36;58.75;98881.75;5092691;28;20284;-67
2021/03/21 00:25:45;;;;;;;4.30;3.20;;;;;;;2.39;58.21;98876.44;5094251;28;20214;-68
2021/03/21 00:28:15;;;;;;;3.60;2.93;;;;;;;2.41;58.40;98864.22;5094471;28;20203;-68
2021/03/21 00:30:45;;;;;;;4.40;3.00;;;;;;;2.48;57.64;98876.22;5094300;28;20741;-69
2021/03/21 00:33:13;;;;;;;3.73;3.10;;;;;;;2.55;59.18;98872.56;5094497;28;20207;-69
2021/03/21 00:35:40;;;;;;;5.70;3.50;;;;;;;2.59;57.40;98868.09;5094492;28;20211;-72
2021/03/21 00:38:09;;;;;;;4.77;3.00;;;;;;;2.59;55.78;98868.97;5094262;28;20206;-72
2021/03/21 00:40:36;;;;;;;5.57;3.30;;;;;;;2.63;55.32;98864.53;5094003;28;20210;-72
2021/03/21 00:43:03;;;;;;;3.23;2.90;;;;;;;2.65;55.71;98860.13;5094429;28;20234;-70
2021/03/21 00:45:29;;;;;;;5.00;3.07;;;;;;;2.66;55.03;98864.44;5094305;28;20203;-71
2021/03/21 00:47:55;;;;;;;3.60;3.00;;;;;;;2.66;54.72;98854.88;5092294;28;20269;-70
2021/03/21 00:50:26;;;;;;;6.30;3.23;;;;;;;2.68;53.86;98850.47;5094271;28;20218;-69
2021/03/21 00:52:52;;;;;;;6.07;3.73;;;;;;;2.71;53.67;98853.00;5094148;28;20210;-69
2021/03/21 00:55:18;;;;;;;5.40;2.93;;;;;;;2.76;54.26;98851.09;5093992;28;20214;-69
2021/03/21 00:57:45;;;;;;;4.77;3.17;;;;;;;2.75;54.02;98846.78;5093743;28;20221;-69
2021/03/21 01:00:18;;;;;;;4.60;3.30;;;;;;;2.70;52.94;98838.22;5093819;28;20672;-68
2021/03/21 01:02:45;;;;;;;4.33;3.17;;;;;;;2.72;54.00;98833.81;5095620;28;20599;-69
2021/03/21 01:05:15;;;;;;;4.57;3.17;;;;;;;2.69;53.62;98839.13;5094915;28;20225;-71
2021/03/21 01:07:41;;;;;;;4.10;2.97;;;;;;;2.71;53.82;98837.34;5094092;28;20210;-70
2021/03/21 01:10:08;;;;;;;3.70;2.83;;;;;;;2.75;54.18;98832.88;5094067;28;20214;-70
2021/03/21 01:12:34;;;;;;;4.03;3.33;;;;;;;2.77;54.09;98831.94;5093582;28;20221;-70
2021/03/21 01:15:00;;;;;;;3.97;2.73;;;;;;;2.79;54.11;98834.50;5091870;28;20251;-70
2021/03/21 01:17:27;;;;;;;4.07;2.97;;;;;;;2.79;54.40;98822.31;5093593;28;20214;-70
2021/03/21 01:19:53;;;;;;;4.03;2.83;;;;;;;2.76;53.87;98822.38;5093285;28;20221;-70
2021/03/21 01:22:19;;;;;;;4.27;3.47;;;;;;;2.68;53.55;98821.75;5093496;28;20234;-70
2021/03/21 01:24:45;;;;;;;5.13;3.60;;;;;;;2.68;54.23;98816.53;5093435;28;20638;-70
2021/03/21 01:27:11;;;;;;;3.83;2.97;;;;;;;2.72;53.83;98820.78;5093523;28;20246;-70
2021/03/21 01:29:37;;;;;;;4.97;3.10;;;;;;;2.70;53.91;98819.94;5093418;28;20667;-71
2021/03/21 01:32:07;;;;;;;4.37;3.27;;;;;;;2.72;53.59;98818.16;5093009;28;20214;-69
2021/03/21 01:34:35;;;;;;;3.40;2.73;;;;;;;2.75;53.99;98809.41;5093573;28;20217;-70
2021/03/21 01:37:01;;;;;;;5.90;3.33;;;;;;;2.73;54.09;98806.81;5093485;28;20327;-70
2021/03/21 01:39:28;;;;;;;4.30;3.00;;;;;;;2.75;54.34;98805.03;5092286;28;20215;-70
2021/03/21 01:41:59;;;;;;;3.27;2.70;;;;;;;2.73;55.11;98799.00;5092989;28;20228;-68
2021/03/21 01:44:26;;;;;;;4.47;2.80;;;;;;;2.76;54.61;98793.69;5093321;28;20218;-69
2021/03/21 01:47:33;;;;;;;3.83;2.90;;;;;;;2.74;54.39;98786.78;5093234;28;20213;-70
2021/03/21 01:50:24;;;;;;;4.20;3.30;;;;;;;2.68;53.68;98781.72;5085229;28;20748;-70
2021/03/21 01:52:51;;;;;;;3.90;3.20;;;;;;;2.68;54.38;98785.22;5093293;28;20221;-70
2021/03/21 01:55:18;;;;;;;5.77;3.23;;;;;;;2.71;54.24;98786.88;5092996;28;20712;-69
2021/03/21 01:57:45;;;;;;;4.40;3.00;;;;;;;2.69;54.84;98776.47;5093465;28;20206;-70
2021/03/21 02:00:12;;;;;;;4.20;3.00;;;;;;;2.69;55.68;98792.13;5093058;28;20213;-70
2021/03/21 02:02:39;;;;;;;5.37;3.60;;;;;;;2.71;55.38;98773.84;5092775;28;20730;-70
2021/03/21 02:05:07;;;;;;;4.23;3.37;;;;;;;2.79;55.00;98777.94;5093080;28;20217;-72
2021/03/21 02:07:44;;;;;;;4.37;3.60;;;;;;;2.77;55.71;98782.38;5091488;28;20631;-72
2021/03/21 02:10:23;;;;;;;4.77;3.23;;;;;;;2.75;54.90;98778.91;5093210;28;20228;-72
2021/03/21 02:12:55;;;;;;;4.23;3.13;;;;;;;2.76;54.87;98780.63;5092889;28;20337;-70
2021/03/21 02:15:26;;;;;;;5.63;3.00;;;;;;;2.77;54.54;98773.66;5092737;28;20206;-71
2021/03/21 02:18:02;;;;;;;3.97;3.13;;;;;;;2.73;54.80;98772.91;5092777;28;20214;-71
2021/03/21 02:20:49;;;;;;;4.03;3.20;;;;;;;2.72;54.64;98760.75;5092800;28;20583;-69
2021/03/21 02:23:31;;;;;;;5.60;3.70;;;;;;;2.71;55.71;98764.25;5092772;28;20240;-68
2021/03/21 02:26:15;;;;;;;4.40;3.17;;;;;;;2.75;56.18;98767.66;5092796;28;20210;-69
2021/03/21 02:29:17;;;;;;;4.13;3.30;;;;;;;2.73;56.04;98757.25;5092969;28;20207;-72
2021/03/21 02:31:47;;;;;;;4.33;3.27;;;;;;;2.79;56.47;98762.28;5059013;28;20211;-70
2021/03/21 02:34:19;;;;;;;4.67;3.17;;;;;;;2.78;56.68;98752.75;5092707;28;20213;-70
2021/03/21 02:36:50;;;;;;;5.27;2.97;;;;;;;2.78;57.26;98755.34;5092643;28;20290;-69
2021/03/21 02:39:24;;;;;;;4.33;3.27;;;;;;;2.82;56.86;98749.13;5092537;28;20217;-69
2021/03/21 02:41:55;;;;;;;3.90;3.10;;;;;;;2.74;56.57;98753.72;5093778;28;20628;-70
2021/03/21 02:44:26;;;;;;;5.13;3.30;;;;;;;2.77;57.43;98751.03;5096340;28;20661;-69
2021/03/21 02:46:57;;;;;;;4.83;3.33;;;;;;;2.78;57.16;98744.91;5096600;28;20280;-69
2021/03/21 02:49:28;;;;;;;5.40;3.47;;;;;;;2.77;56.97;98735.38;5096552;28;20229;-72
2021/03/21 02:51:59;;;;;;;4.87;3.50;;;;;;;2.79;57.00;98736.19;5096290;28;20210;-72
2021/03/21 02:54:29;;;;;;;3.53;3.03;;;;;;;2.78;57.10;98734.47;5096498;28;20208;-72
2021/03/21 02:57:01;;;;;;;3.90;3.00;;;;;;;2.76;56.76;98724.97;5096344;28;20571;-72
2021/03/21 02:59:31;;;;;;;5.50;3.57;;;;;;;2.71;56.82;98717.28;5094724;28;20213;-72
2021/03/21 03:02:03;;;;;;;5.03;3.27;;;;;;;2.77;56.75;98713.63;5096250;28;20235;-71
2021/03/21 03:04:33;;;;;;;5.77;3.50;;;;;;;2.77;58.52;98713.63;5096197;28;20211;-70
2021/03/21 03:07:05;;;;;;;6.43;3.63;;;;;;;2.75;59.09;98718.88;5095928;28;20214;-70
2021/03/21 03:09:38;;;;;;;4.57;3.17;;;;;;;2.74;58.37;98713.72;5096166;28;20207;-70
2021/03/21 03:12:10;;;;;;;4.17;3.30;;;;;;;2.69;57.75;98719.06;5095691;28;20680;-69
2021/03/21 03:14:39;;;;;;;6.77;3.60;;;;;;;2.71;58.15;98705.97;5096263;28;20241;-70
2021/03/21 03:17:10;;;;;;;4.03;3.13;;;;;;;2.71;57.82;98701.63;5095851;28;20214;-69
2021/03/21 03:19:45;;;;;;;3.90;3.07;;;;;;;2.73;58.01;98710.25;5095647;28;20215;-69
2021/03/21 03:22:17;;;;;;;4.70;3.40;;;;;;;2.73;58.40;98704.16;5095904;28;20246;-68
2021/03/21 03:24:54;;;;;;;5.20;3.60;;;;;;;2.72;58.97;98700.72;5093850;28;20294;-70
2021/03/21 03:27:29;;;;;;;4.40;3.50;;;;;;;2.69;59.48;98697.34;5095575;28;21278;-70
2021/03/21 03:29:58;;;;;;;4.47;3.37;;;;;;;2.69;60.09;98690.34;5095379;28;20214;-70
2021/03/21 03:32:29;;;;;;;4.10;3.03;;;;;;;2.69;60.11;98685.13;5095887;28;20212;-70
2021/03/21 03:34:57;;;;;;;4.47;3.47;;;;;;;2.68;60.12;98683.44;5095351;28;20696;-69
2021/03/21 03:37:24;;;;;;;4.20;3.20;;;;;;;2.70;60.43;98688.63;5095457;28;20212;-70
2021/03/21 03:39:50;;;;;;;4.50;3.23;;;;;;;2.69;60.28;98682.53;5095864;28;20206;-70
2021/03/21 03:42:26;;;;;;;3.93;3.13;;;;;;;2.65;60.66;98680.94;5095419;28;20222;-71
2021/03/21 03:45:04;;;;;;;4.63;3.00;;;;;;;2.69;61.30;98674.69;5095476;28;20206;-69
2021/03/21 03:47:42;;;;;;;4.67;3.20;;;;;;;2.69;60.87;98686.91;5095390;28;20834;-69
2021/03/21 03:50:15;;;;;;;4.20;3.10;;;;;;;2.70;61.40;98689.44;5093250;28;20292;-69
2021/03/21 03:52:53;;;;;;;8.40;3.67;;;;;;;2.70;60.60;98693.84;5095040;28;20260;-68
2021/03/21 03:55:27;;;;;;;4.13;3.20;;;;;;;2.73;61.17;98694.59;5094582;28;20207;-69
2021/03/21 03:57:59;;;;;;;3.90;2.90;;;;;;;2.70;61.22;98689.44;5095221;28;20218;-69
2021/03/21 04:00:32;;;;;;;4.67;3.30;;;;;;;2.73;62.22;98697.22;5095040;28;20221;-69
2021/03/21 04:03:09;;;;;;;3.70;3.00;;;;;;;2.68;61.87;98690.41;5095063;28;20231;-69
2021/03/21 04:05:41;;;;;;;5.13;3.23;;;;;;;2.65;62.45;98685.28;5094993;28;20208;-69
2021/03/21 04:08:15;;;;;;;4.67;3.20;;;;;;;2.75;63.29;98677.13;5094942;28;20210;-69
2021/03/21 04:10:46;;;;;;;4.70;3.20;;;;;;;2.70;62.35;98676.41;5094589;28;20213;-71
2021/03/21 04:13:18;;;;;;;3.43;2.97;;;;;;;2.69;61.09;98677.31;5094944;28;20245;-68
2021/03/21 04:15:47;;;;;;;3.50;3.03;;;;;;;2.74;59.95;98675.44;5094245;28;20208;-68
2021/03/21 04:18:20;;;;;;;5.73;4.33;;;;;;;2.76;60.78;98671.00;5093892;28;20223;-68
2021/03/21 04:20:51;;;;;;;4.47;3.37;;;;;;;2.77;59.83;98664.91;5094599;28;20211;-68
2021/03/21 04:23:24;;;;;;;3.80;3.13;;;;;;;2.78;59.32;98671.84;5094469;28;20241;-67
2021/03/21 04:25:54;;;;;;;3.73;2.90;;;;;;;2.75;59.92;98666.69;5099040;28;20261;-68
2021/03/21 04:28:24;;;;;;;3.87;2.83;;;;;;;2.78;59.75;98653.56;5099034;28;20206;-69
2021/03/21 04:30:54;;;;;;;3.83;2.70;;;;;;;2.74;59.86;98654.53;5094743;28;20218;-69
2021/03/21 04:33:24;;;;;;;3.60;3.00;;;;;;;2.81;60.21;98658.69;5094545;28;20207;-69
2021/03/21 04:35:55;;;;;;;6.73;3.20;;;;;;;2.82;59.30;98652.56;5094306;28;20222;-69
2021/03/21 04:38:27;;;;;;;4.30;2.90;;;;;;;2.84;59.02;98647.28;5094413;28;20208;-68
2021/03/21 04:40:53;;;;;;;3.63;2.67;;;;;;;2.83;59.13;98643.84;5094084;28;20203;-67
2021/03/21 04:43:24;;;;;;;3.83;2.73;;;;;;;2.85;58.36;98642.03;5092551;28;20228;-68
2021/03/21 04:45:54;;;;;;;4.07;2.57;;;;;;;2.79;59.34;98642.22;5094280;28;20264;-70
2021/03/21 04:48:22;;;;;;;3.23;2.67;;;;;;;2.79;59.62;98642.22;5094241;28;20207;-67
2021/03/21 04:50:54;;;;;;;4.80;3.07;;;;;;;2.79;60.78;98629.16;5094179;28;20206;-67
2021/03/21 04:53:30;;;;;;;3.40;3.00;;;;;;;2.78;63.06;98619.63;5094198;28;20604;-66
2021/03/21 04:56:00;;;;;;;4.13;3.30;;;;;;;2.76;65.31;98616.19;5094204;28;20202;-66
2021/03/21 04:58:32;;;;;;;3.90;3.20;;;;;;;2.73;66.41;98621.53;5094100;28;20323;-66
2021/03/21 05:01:05;;;;;;;3.97;2.80;;;;;;;2.69;65.28;98619.91;5093681;28;20698;-66
2021/03/21 05:03:36;;;;;;;4.47;3.23;;;;;;;2.69;63.97;98619.91;5093853;28;20242;-66
2021/03/21 05:06:07;;;;;;;4.30;2.83;;;;;;;2.66;63.18;98625.22;5093521;28;20669;-67
2021/03/21 05:08:39;;;;;;;4.33;3.17;;;;;;;2.67;62.98;98626.94;5092210;28;20280;-66
2021/03/21 05:11:08;;;;;;;4.27;2.93;;;;;;;2.65;63.21;98628.75;5093518;28;20237;-66
2021/03/21 05:13:41;;;;;;;3.83;3.03;;;;;;;2.71;61.95;98641.59;5093565;28;20242;-66
2021/03/21 05:16:12;;;;;;;4.90;3.27;;;;;;;2.74;62.67;98638.88;5094042;28;20203;-66
2021/03/21 05:18:47;;;;;;;5.10;3.20;;;;;;;2.81;61.98;98642.19;5093383;28;20206;-66
2021/03/21 05:21:18;;;;;;;5.00;3.00;;;;;;;2.86;62.22;98648.97;5093488;28;20267;-65
2021/03/21 05:23:52;;;;;;;3.70;2.80;;;;;;;2.84;62.79;98637.72;5093292;28;20797;-65
2021/03/21 05:26:23;;;;;;;3.73;3.30;;;;;;;2.92;63.54;98643.56;5093348;28;20211;-65
2021/03/21 05:29:21;;;;;;;4.43;2.90;;;;;;;2.93;63.19;98645.25;5093613;28;20207;-65
2021/03/21 05:31:48;;;;;;;3.73;3.10;;;;;;;2.94;62.91;98646.97;5087975;28;20220;-65
2021/03/21 05:34:15;;;;;;;4.80;3.50;;;;;;;2.92;62.68;98647.91;5091411;28;20247;-67
2021/03/21 05:36:57;;;;;;;5.23;3.17;;;;;;;2.95;62.38;98647.81;5093431;28;20230;-66
2021/03/21 05:39:41;;;;;;;4.53;3.20;;;;;;;2.96;62.08;98650.41;5093159;28;20208;-66
2021/03/21 05:42:40;;;;;;;3.53;2.73;;;;;;;2.97;60.29;98654.72;5093264;28;20316;-66
2021/03/21 05:45:39;;;;;;;3.40;2.77;;;;;;;2.95;60.20;98643.44;5093206;28;20207;-66
2021/03/21 05:48:38;;;;;;;4.60;2.90;;;;;;;2.95;60.17;98642.59;5093226;28;20582;-67
2021/03/21 05:51:35;;;;;;;4.80;3.17;;;;;;;3.01;60.63;98645.84;5067440;28;20207;-66
2021/03/21 05:54:46;;;;;;;4.23;2.80;;;;;;;3.01;60.33;98637.19;5093397;28;20678;-70
2021/03/21 05:57:37;;;;;;;4.80;3.07;;;;;;;3.05;60.98;98628.38;5092970;28;20678;-69
2021/03/21 06:00:23;;;;;;;4.80;3.10;;;;;;;3.05;61.65;98618.75;5092088;28;20215;-70
2021/03/21 06:03:17;;;;;;;4.87;3.03;;;;;;;3.08;62.38;98618.69;5093228;28;20235;-70
2021/03/21 06:06:18;;;;;;;5.97;2.80;;;;;;;3.11;63.73;98615.13;5092935;28;20215;-70
2021/03/21 06:08:58;;;;;;;5.03;2.90;;;;;;;3.15;63.90;98609.75;5093134;28;20207;-69
2021/03/21 06:11:52;;;;;;;3.80;2.47;;;;;;;3.19;63.55;98610.50;5092672;28;20669;-70
2021/03/21 06:14:56;;;;;;;3.80;2.70;;;;;;;3.17;63.68;98609.69;5092822;28;20245;-68
2021/03/21 06:17:48;;;;;;;3.63;2.73;;;;;;;3.19;62.39;98605.28;5095338;28;20310;-70
2021/03/21 06:20:30;;;;;;;3.67;2.43;;;;;;;3.17;61.85;98601.88;5097158;28;20215;-70
2021/03/21 06:23:31;;;;;;;3.57;2.53;;;;;;;3.21;63.67;98604.31;5096595;28;20697;-70
2021/03/21 06:26:05;;;;;;;3.20;2.50;;;;;;;3.23;64.04;98601.63;5096907;28;20211;-70
2021/03/21 06:28:56;;;;;;;4.13;2.70;;;;;;;3.27;64.30;98619.78;5096238;28;20210;-70
2021/03/21 06:32:00;;;;;;;3.40;2.23;;;;;;;3.28;64.02;98616.28;5096628;28;20668;-69
2021/03/21 06:34:32;;;;;;;3.43;2.80;;;;;;;3.31;63.07;98621.38;5096664;28;20708;-73
2021/03/21 06:37:00;;;;;;;4.03;2.57;;;;;;;3.32;62.39;98609.19;5096443;28;20208;-72
2021/03/21 06:40:02;;;;;;;3.40;3.00;;;;;;;3.30;61.58;98613.63;5096668;28;20217;-72
2021/03/21 06:42:54;;;;;;;2.63;2.37;;;;;;;3.30;62.45;98614.44;5096143;28;20238;-72
2021/03/21 06:46:00;;;;;;;3.23;2.70;;;;;;;3.35;62.53;98617.78;5096623;28;20255;-72
2021/03/21 06:48:47;;;;;;;3.43;2.20;;;;;;;3.41;62.60;98612.34;5096276;28;20207;-72
2021/03/21 06:51:28;;;;;;;3.10;2.37;;;;;;;3.43;62.71;98610.53;5096590;28;20219;-71
2021/03/21 06:54:00;;;;;;;3.63;2.67;;;;;;;3.45;62.08;98598.28;5094957;28;20212;-71
2021/03/21 06:56:51;;;;;;;3.53;2.40;;;;;;;3.48;62.53;98608.63;5096393;28;20214;-71
2021/03/21 06:59:49;;;;;;;3.63;2.47;;;;;;;3.45;62.64;98606.13;5096372;28;20218;-70
2021/03/21 07:03:02;;;;;;;3.73;3.00;;;;;;;3.48;61.88;98606.00;5096248;28;20232;-68
2021/03/21 07:06:33;;;;;;;3.83;2.87;;;;;;;3.49;61.03;98599.88;5095721;28;20751;-67
2021/03/21 07:09:08;;;;;;;3.87;2.80;;;;;;;3.51;61.19;98598.06;5096055;28;20233;-69
2021/03/21 07:11:56;;;;;;;3.40;2.80;;;;;;;3.55;61.28;98593.59;5096234;28;20210;-68
2021/03/21 07:15:06;;;;;;;5.77;4.10;;;;;;;3.57;61.02;98594.38;5095758;28;20235;-67
2021/03/21 07:18:03;;;;;;;7.13;5.97;;;;;;;3.62;60.55;98590.69;5096072;28;20554;-68
2021/03/21 07:21:13;;;;;;;15.87;11.00;;;;;;;3.65;60.18;98588.00;5094318;28;20210;-70
2021/03/21 07:24:24;;;;;;;24.70;18.07;;;;;;;3.64;59.52;98581.06;5084428;28;20324;-71
2021/03/21 07:27:14;;;;;;;14.60;11.83;;;;;;;3.70;58.94;98586.09;5000338;28;20216;-71
2021/03/21 07:29:47;;;;;;;11.67;10.13;;;;;;;3.75;59.04;98597.25;5087910;28;20208;-71
2021/03/21 07:32:34;;;;;;;9.03;8.10;;;;;;;3.78;60.11;98601.50;5095291;28;20223;-71
2021/03/21 07:35:21;;;;;;;6.93;6.23;;;;;;;3.88;61.62;98603.75;5095846;28;20553;-70
2021/03/21 07:37:56;;;;;;;4.20;3.60;;;;;;;3.93;61.20;98601.81;5095448;28;20209;-71
2021/03/21 07:40:35;;;;;;;3.73;3.20;;;;;;;3.99;60.32;98606.84;5094848;28;20699;-68
2021/03/21 07:43:14;;;;;;;3.63;2.80;;;;;;;3.98;58.83;98594.63;5094741;28;20277;-68
2021/03/21 07:46:06;;;;;;;4.83;2.70;;;;;;;4.02;58.25;98596.25;5093253;28;20204;-70
2021/03/21 07:48:48;;;;;;;3.20;2.47;;;;;;;4.06;59.75;98591.75;5094631;28;20736;-70
2021/03/21 07:51:30;;;;;;;3.10;2.33;;;;;;;4.09;59.45;98592.50;5096121;28;20667;-70
2021/03/21 07:54:01;;;;;;;4.43;3.40;;;;;;;4.15;59.39;98596.69;5095468;28;20218;-71
2021/03/21 07:56:33;;;;;;;2.90;2.40;;;;;;;4.18;59.60;98592.19;5094827;28;20202;-71
2021/03/21 07:59:04;;;;;;;2.60;2.40;;;;;;;4.22;59.85;98588.53;5094654;28;20576;-71
2021/03/21 08:01:31;;;;;;;3.37;2.20;;;;;;;4.28;60.33;98583.06;5094640;28;20221;-70
2021/03/21 08:04:00;;;;;;;2.93;2.33;;;;;;;4.27;59.22;98586.59;5094589;28;20256;-71
2021/03/21 08:06:30;;;;;;;3.20;2.40;;;;;;;4.30;59.62;98575.16;5094582;28;20270;-71
2021/03/21 08:09:04;;;;;;;2.97;2.67;;;;;;;4.40;59.01;98572.13;5094353;28;20212;-71
2021/03/21 08:11:33;;;;;;;4.77;2.37;;;;;;;4.48;58.46;98575.34;5093656;28;20781;-70
2021/03/21 08:14:12;;;;;;;4.03;2.60;;;;;;;4.54;58.13;98577.72;5093270;28;20298;-70
2021/03/21 08:16:44;;;;;;;3.00;2.33;;;;;;;4.62;59.14;98561.69;5094224;28;20671;-71
2021/03/21 08:19:15;;;;;;;3.13;2.43;;;;;;;4.68;58.38;98564.94;5094468;28;20347;-70
2021/03/21 08:21:41;;;;;;;3.00;2.50;;;;;;;4.61;58.53;98566.09;5094243;28;20213;-70
2021/03/21 08:24:13;;;;;;;2.90;2.33;;;;;;;4.58;58.09;98555.75;5093835;28;20689;-71
2021/03/21 08:26:42;;;;;;;5.10;2.63;;;;;;;4.58;55.84;98550.50;5094051;28;20209;-70
2021/03/21 08:29:11;;;;;;;3.83;2.60;;;;;;;4.61;56.65;98539.94;5094186;28;20209;-70
2021/03/21 08:31:42;;;;;;;2.77;2.33;;;;;;;4.71;57.08;98530.78;5093945;28;20604;-70
2021/03/21 08:34:40;;;;;;;3.50;2.30;;;;;;;4.82;58.78;98518.13;5090272;28;20219;-72
2021/03/21 08:37:29;;;;;;;4.13;3.00;;;;;;;4.98;59.40;98519.22;5092656;28;20218;-72
2021/03/21 08:40:01;;;;;;;3.93;2.53;;;;;;;5.09;59.36;98508.28;5090855;28;20312;-72
2021/03/21 08:42:35;;;;;;;2.87;2.47;;;;;;;5.11;59.16;98509.94;5091190;28;20232;-71
2021/03/21 08:45:21;;;;;;;4.13;2.80;;;;;;;5.15;58.60;98511.50;5070734;28;20210;-71
2021/03/21 08:47:55;;;;;;;3.33;2.90;;;;;;;5.03;55.01;98516.41;5072230;28;20259;-72
2021/03/21 08:50:43;;;;;;;5.07;2.77;;;;;;;5.05;56.47;98512.81;5071906;28;20220;-71
2021/03/21 08:53:24;;;;;;;4.37;3.20;;;;;;;5.09;57.31;98511.78;5070151;28;20217;-70
2021/03/21 08:56:10;;;;;;;93.60;42.77;;;;;;;5.03;55.94;98508.53;5071908;28;20622;-71
2021/03/21 08:58:36;;;;;;;7.40;4.80;;;;;;;5.08;56.49;98512.66;5072601;28;20210;-70
2021/03/21 09:01:09;;;;;;;5.13;3.63;;;;;;;5.04;57.71;98508.47;5072256;28;20225;-70
2021/03/21 09:03:36;;;;;;;4.37;3.60;;;;;;;5.14;58.13;98508.94;5071178;28;20235;-71
2021/03/21 09:06:02;;;;;;;6.00;3.47;;;;;;;5.08;56.48;98520.50;5070335;28;20213;-71
2021/03/21 09:08:31;;;;;;;5.43;4.13;;;;;;;5.11;57.57;98523.03;5072007;28;20673;-71
2021/03/21 09:10:59;;;;;;;3.33;2.80;;;;;;;5.12;56.82;98519.47;5071400;28;20218;-70
2021/03/21 09:13:27;;;;;;;3.87;2.83;;;;;;;5.10;55.55;98517.84;5071446;28;20711;-71
2021/03/21 09:16:08;;;;;;;3.73;3.00;;;;;;;5.09;55.86;98524.00;5071930;28;20258;-70
2021/03/21 09:18:38;;;;;;;6.63;3.40;;;;;;;5.13;56.20;98531.66;5071084;28;20213;-71
2021/03/21 09:21:15;;;;;;;3.93;3.17;;;;;;;5.11;56.66;98525.66;5071408;28;20312;-70
2021/03/21 09:24:07;;;;;;;5.07;3.17;;;;;;;5.11;56.38;98524.78;5071666;28;20235;-71
2021/03/21 09:26:39;;;;;;;4.10;3.13;;;;;;;5.16;56.71;98528.06;5071208;28;20218;-69
2021/03/21 09:29:16;;;;;;;4.47;3.40;;;;;;;5.22;56.52;98535.69;5071893;28;20210;-70
2021/03/21 09:31:43;;;;;;;4.90;3.40;;;;;;;5.23;56.06;98529.50;5072061;28;20260;-70
2021/03/21 09:34:16;;;;;;;4.93;3.87;;;;;;;5.21;55.10;98536.59;5068900;28;20212;-70
2021/03/21 09:36:45;;;;;;;5.27;3.50;;;;;;;5.31;55.91;98530.06;5071517;28;20227;-69
2021/03/21 09:39:15;;;;;;;6.53;3.63;;;;;;;5.31;55.25;98548.41;5071669;28;20214;-70
2021/03/21 09:41:42;;;;;;;5.60;3.43;;;;;;;5.28;54.91;98554.63;5080132;28;20205;-70
2021/03/21 09:44:21;;;;;;;5.07;3.57;;;;;;;5.35;55.67;98545.59;5090708;28;20590;-69
2021/03/21 09:46:49;;;;;;;5.23;3.73;;;;;;;5.33;55.28;98542.19;5090589;28;20577;-70
2021/03/21 09:49:24;;;;;;;4.77;3.60;;;;;;;5.42;55.44;98547.03;5090598;28;20218;-70
2021/03/21 09:51:52;;;;;;;5.80;3.57;;;;;;;5.53;55.23;98550.06;5091843;28;20209;-69
2021/03/21 09:54:42;;;;;;;4.73;3.80;;;;;;;5.55;55.03;98547.38;5092662;28;20311;-69
2021/03/21 09:57:42;;;;;;;6.03;3.67;;;;;;;5.65;54.90;98544.28;5092637;28;20203;-72
2021/03/21 10:00:13;;;;;;;5.07;3.70;;;;;;;5.82;55.54;98557.56;5070397;28;20202;-70
2021/03/21 10:02:44;;;;;;;4.83;3.87;;;;;;;5.96;54.48;98549.94;5092556;28;20287;-70
2021/03/21 10:05:20;;;;;;;4.20;3.20;;;;;;;6.10;55.17;98542.28;5092488;28;20214;-70
2021/03/21 10:07:54;;;;;;;5.77;3.67;;;;;;;6.25;53.19;98535.50;5092322;28;20672;-70
2021/03/21 10:10:23;;;;;;;5.10;4.00;;;;;;;6.40;54.06;98540.91;5092398;28;20218;-70
2021/03/21 10:12:50;;;;;;;5.47;3.70;;;;;;;6.56;53.98;98531.41;5092184;28;20241;-70
2021/03/21 10:15:20;;;;;;;4.50;3.47;;;;;;;6.73;53.78;98536.69;5092496;28;20217;-70
2021/03/21 10:17:49;;;;;;;5.60;4.07;;;;;;;6.79;53.02;98544.25;5092368;28;20206;-70
2021/03/21 10:20:18;;;;;;;5.00;4.00;;;;;;;6.87;53.79;98541.28;5092504;28;20572;-70
2021/03/21 10:22:57;;;;;;;5.43;4.20;;;;;;;6.75;53.25;98549.75;5092373;28;20341;-70
2021/03/21 10:25:54;;;;;;;6.60;4.10;;;;;;;6.47;54.49;98542.31;5092299;28;20215;-70
2021/03/21 10:28:45;;;;;;;6.43;4.60;;;;;;;6.43;55.70;98539.91;5047973;28;20273;-71
2021/03/21 10:31:30;;;;;;;5.73;4.30;;;;;;;6.50;57.51;98531.69;5089884;28;20207;-70
2021/03/21 10:34:33;;;;;;;5.57;4.17;;;;;;;6.19;60.91;98534.03;5092397;28;20214;-70
2021/03/21 10:37:00;;;;;;;6.30;4.07;;;;;;;6.09;61.48;98529.22;5078355;28;20218;-70
2021/03/21 10:39:58;;;;;;;5.93;3.97;;;;;;;5.83;63.19;98526.91;5092121;28;20264;-70
2021/03/21 10:42:45;;;;;;;5.10;3.67;;;;;;;5.48;66.14;98531.03;5091911;28;20242;-70
2021/03/21 10:45:15;;;;;;;6.10;4.10;;;;;;;5.54;68.37;98525.53;5092065;28;20211;-70
2021/03/21 10:47:50;;;;;;;6.03;4.40;;;;;;;5.73;67.73;98525.63;5091969;28;20206;-71
2021/03/21 10:50:58;;;;;;;6.00;4.47;;;;;;;5.84;67.78;98529.50;5091664;28;20668;-70
2021/03/21 10:53:33;;;;;;;5.80;4.40;;;;;;;5.90;66.93;98518.72;5090404;28;20747;-71
2021/03/21 10:56:03;;;;;;;6.67;4.73;;;;;;;6.06;66.87;98519.75;5092155;28;20217;-70
2021/03/21 10:58:38;;;;;;;6.20;4.47;;;;;;;6.13;66.90;98513.31;5092311;28;20257;-70
2021/03/21 11:01:28;;;;;;;6.10;4.73;;;;;;;6.26;66.51;98510.94;5091539;28;20293;-71
2021/03/21 11:04:23;;;;;;;6.23;4.40;;;;;;;6.40;66.29;98514.66;5094409;28;20236;-70
2021/03/21 11:07:02;;;;;;;7.40;4.73;;;;;;;6.46;65.75;98497.75;5082356;28;20211;-70
2021/03/21 11:09:32;;;;;;;7.47;5.60;;;;;;;6.37;65.91;98487.69;5095801;28;20209;-70
2021/03/21 11:12:02;;;;;;;7.43;5.47;;;;;;;6.30;62.46;98484.47;5095698;28;20214;-71
2021/03/21 11:14:33;;;;;;;7.00;5.23;;;;;;;6.38;63.89;98482.38;5095811;28;20233;-70
2021/03/21 11:17:01;;;;;;;6.60;5.07;;;;;;;6.51;62.59;98480.88;5095541;28;20222;-70
2021/03/21 11:19:29;;;;;;;6.63;4.90;;;;;;;6.63;61.99;98485.53;5094711;28;20207;-70
2021/03/21 11:21:57;;;;;;;6.60;4.90;;;;;;;6.61;60.09;98476.88;5093603;28;20618;-70
2021/03/21 11:24:33;;;;;;;7.80;5.53;;;;;;;6.49;59.44;98492.34;5095174;28;20236;-70
2021/03/21 11:27:01;;;;;;;6.07;4.80;;;;;;;6.38;60.79;98485.00;5095281;28;20213;-70
2021/03/21 11:29:34;;;;;;;7.40;5.20;;;;;;;6.40;61.34;98482.31;5095210;28;20214;-70
2021/03/21 11:32:13;;;;;;;6.33;4.53;;;;;;;6.50;61.17;98479.16;5095197;28;20211;-70
2021/03/21 11:34:39;;;;;;;7.00;5.10;;;;;;;6.56;60.98;98467.50;5095049;28;20211;-70
2021/03/21 11:37:07;;;;;;;7.53;4.80;;;;;;;6.42;61.27;98462.91;5095098;28;20214;-70
2021/03/21 11:39:37;;;;;;;5.33;4.53;;;;;;;6.50;62.10;98465.19;5095234;28;20211;-70
2021/03/21 11:42:13;;;;;;;6.77;4.87;;;;;;;6.53;61.07;98471.13;5094422;28;20265;-70
2021/03/21 11:44:39;;;;;;;5.50;3.97;;;;;;;6.62;62.92;98468.06;5094600;28;20211;-70
2021/03/21 11:47:15;;;;;;;5.63;4.03;;;;;;;6.56;63.17;98463.13;5094912;28;20210;-71
2021/03/21 11:49:42;;;;;;;6.80;4.10;;;;;;;6.48;63.76;98480.16;5092731;28;20691;-70
2021/03/21 11:52:09;;;;;;;5.37;4.13;;;;;;;6.29;64.99;98472.28;5094850;28;20211;-70
2021/03/21 11:54:37;;;;;;;6.10;4.50;;;;;;;6.33;65.88;98475.63;5094613;28;20219;-70
2021/03/21 11:57:18;;;;;;;5.67;4.03;;;;;;;6.32;66.47;98480.03;5094665;28;20231;-70
2021/03/21 11:59:48;;;;;;;5.57;3.90;;;;;;;6.26;66.95;98482.94;5094573;28;20241;-70
2021/03/21 12:02:31;;;;;;;6.17;4.07;;;;;;;6.05;67.86;98475.22;5094134;28;20212;-70
2021/03/21 12:05:01;;;;;;;5.50;4.30;;;;;;;6.05;68.91;98486.53;5094443;28;20206;-70
2021/03/21 12:07:30;;;;;;;5.37;3.80;;;;;;;6.12;69.57;98492.38;5094031;28;20215;-70
2021/03/21 12:09:57;;;;;;;6.63;4.30;;;;;;;6.16;70.08;98479.03;5094205;28;20211;-70
2021/03/21 12:12:36;;;;;;;6.70;4.23;;;;;;;6.06;72.46;98477.78;5094151;28;20217;-71
2021/03/21 12:15:06;;;;;;;7.00;4.10;;;;;;;6.33;72.91;98470.38;5092863;28;20283;-69
2021/03/21 12:17:36;;;;;;;5.17;4.23;;;;;;;6.36;71.86;98465.00;5091884;28;20255;-70
2021/03/21 12:20:38;;;;;;;4.90;4.00;;;;;;;6.18;73.22;98461.44;5094146;28;20553;-71
2021/03/21 12:23:05;;;;;;;4.23;3.23;;;;;;;6.35;74.93;98464.13;5093995;28;20273;-71